GXA2189 KHRL-KSHV
Flight info
| Callsign | GXA2189 |
|---|---|
| Flight time | 1h 14m |
| Altitude | 35000 |
| Route | CRP |
| Aircraft | A320/M-SDE3FGHIRWY/LB1 |
Departure
| Time | 2026-04-27 01:03 |
|---|---|
| Airport | Valley International Airport (KHRL) |
Arrival
| Time | 2026-04-27 02:17 |
|---|---|
| Airport | Shreveport Regional Airport (KSHV) |
| Time | Latitude | Longitude | Altitude | Speed | Heading |
|---|---|---|---|---|---|
| 2026-04-27 00:21 | 26.22030 | -97.64532 | 48 ft | 0 kts | 1° |
| 2026-04-27 00:49 | 26.22016 | -97.64532 | 48 ft | 3 kts | 338° |
| 2026-04-27 00:49 | 26.22001 | -97.64521 | 45 ft | 2 kts | 303° |
| 2026-04-27 00:50 | 26.21992 | -97.64506 | 48 ft | 3 kts | 287° |
| 2026-04-27 00:50 | 26.21989 | -97.64495 | 43 ft | 0 kts | 270° |
| 2026-04-27 00:52 | 26.21989 | -97.64525 | 46 ft | 7 kts | 269° |
| 2026-04-27 00:53 | 26.21989 | -97.64576 | 48 ft | 6 kts | 270° |
| 2026-04-27 00:53 | 26.21989 | -97.64592 | 48 ft | 1 kts | 270° |
| 2026-04-27 00:53 | 26.21989 | -97.64596 | 48 ft | 0 kts | 270° |
| 2026-04-27 00:54 | 26.21989 | -97.64620 | 48 ft | 7 kts | 270° |
| 2026-04-27 00:54 | 26.21989 | -97.64712 | 48 ft | 14 kts | 270° |
| 2026-04-27 00:54 | 26.22071 | -97.64760 | 45 ft | 20 kts | 0° |
| 2026-04-27 00:55 | 26.22236 | -97.64760 | 45 ft | 25 kts | 0° |
| 2026-04-27 00:55 | 26.22413 | -97.64757 | 48 ft | 26 kts | 1° |
| 2026-04-27 00:55 | 26.22596 | -97.64756 | 47 ft | 27 kts | 0° |
| 2026-04-27 00:55 | 26.22782 | -97.64754 | 53 ft | 26 kts | 0° |
| 2026-04-27 00:56 | 26.22967 | -97.64752 | 52 ft | 28 kts | 0° |
| 2026-04-27 00:56 | 26.23157 | -97.64750 | 53 ft | 27 kts | 1° |
| 2026-04-27 00:56 | 26.23321 | -97.64748 | 52 ft | 17 kts | 0° |
| 2026-04-27 00:56 | 26.23372 | -97.64837 | 51 ft | 15 kts | 269° |
| 2026-04-27 00:57 | 26.23373 | -97.64948 | 51 ft | 14 kts | 271° |
| 2026-04-27 00:57 | 26.23375 | -97.65050 | 50 ft | 13 kts | 271° |
| 2026-04-27 00:57 | 26.23376 | -97.65149 | 49 ft | 13 kts | 269° |
| 2026-04-27 00:57 | 26.23377 | -97.65276 | 48 ft | 21 kts | 271° |
| 2026-04-27 00:58 | 26.23378 | -97.65457 | 48 ft | 24 kts | 269° |
| 2026-04-27 00:58 | 26.23382 | -97.65619 | 48 ft | 13 kts | 291° |
| 2026-04-27 00:58 | 26.23461 | -97.65643 | 48 ft | 11 kts | 0° |
| 2026-04-27 00:58 | 26.23543 | -97.65642 | 49 ft | 14 kts | 1° |
| 2026-04-27 00:59 | 26.23650 | -97.65641 | 51 ft | 17 kts | 0° |
| 2026-04-27 00:59 | 26.23785 | -97.65639 | 51 ft | 20 kts | 0° |
| 2026-04-27 00:59 | 26.23924 | -97.65636 | 50 ft | 19 kts | 359° |
| 2026-04-27 00:59 | 26.24018 | -97.65657 | 50 ft | 11 kts | 297° |
| 2026-04-27 01:00 | 26.24025 | -97.65732 | 51 ft | 6 kts | 271° |
| 2026-04-27 01:00 | 26.24026 | -97.65761 | 51 ft | 0 kts | 271° |
| 2026-04-27 01:01 | 26.24026 | -97.65768 | 51 ft | 5 kts | 271° |
| 2026-04-27 01:01 | 26.24026 | -97.65832 | 51 ft | 8 kts | 268° |
| 2026-04-27 01:02 | 26.23993 | -97.65861 | 52 ft | 7 kts | 179° |
| 2026-04-27 01:02 | 26.23860 | -97.65861 | 53 ft | 49 kts | 180° |
| 2026-04-27 01:02 | 26.23274 | -97.65866 | 46 ft | 116 kts | 181° |
| 2026-04-27 01:02 | 26.22288 | -97.65878 | 131 ft | 155 kts | 179° |
| 2026-04-27 01:03 | 26.21254 | -97.65902 | 825 ft | 148 kts | 175° |
| 2026-04-27 01:03 | 26.20209 | -97.65913 | 1381 ft | 152 kts | 174° |
| 2026-04-27 01:03 | 26.19131 | -97.65907 | 1848 ft | 161 kts | 176° |
| 2026-04-27 01:03 | 26.17929 | -97.65881 | 2065 ft | 185 kts | 174° |
| 2026-04-27 01:04 | 26.16582 | -97.65838 | 2425 ft | 200 kts | 175° |
| 2026-04-27 01:04 | 26.15160 | -97.65636 | 2875 ft | 212 kts | 159° |
| 2026-04-27 01:04 | 26.13895 | -97.64742 | 3328 ft | 228 kts | 130° |
| 2026-04-27 01:04 | 26.13243 | -97.63056 | 3654 ft | 253 kts | 95° |
| 2026-04-27 01:05 | 26.13583 | -97.61083 | 4269 ft | 271 kts | 63° |
| 2026-04-27 01:05 | 26.14900 | -97.59547 | 4950 ft | 284 kts | 32° |
| 2026-04-27 01:05 | 26.16811 | -97.58862 | 5639 ft | 293 kts | 8° |
| 2026-04-27 01:05 | 26.18845 | -97.58754 | 6479 ft | 294 kts | 360° |
| 2026-04-27 01:06 | 26.20887 | -97.58822 | 7268 ft | 293 kts | 358° |
| 2026-04-27 01:06 | 26.22901 | -97.58929 | 8053 ft | 293 kts | 358° |
| 2026-04-27 01:06 | 26.24955 | -97.58991 | 8782 ft | 297 kts | 0° |
| 2026-04-27 01:06 | 26.27035 | -97.58931 | 9525 ft | 300 kts | 2° |
| 2026-04-27 01:07 | 26.29130 | -97.58792 | 10150 ft | 307 kts | 3° |
| 2026-04-27 01:07 | 26.31338 | -97.58603 | 10328 ft | 330 kts | 4° |
| 2026-04-27 01:07 | 26.33677 | -97.58383 | 10704 ft | 342 kts | 3° |
| 2026-04-27 01:07 | 26.36066 | -97.58155 | 11324 ft | 346 kts | 2° |
| 2026-04-27 01:08 | 26.38475 | -97.57929 | 12000 ft | 349 kts | 2° |
| 2026-04-27 01:08 | 26.40900 | -97.57707 | 12696 ft | 351 kts | 2° |
| 2026-04-27 01:08 | 26.43344 | -97.57490 | 13379 ft | 353 kts | 1° |
| 2026-04-27 01:08 | 26.45804 | -97.57274 | 14001 ft | 356 kts | 1° |
| 2026-04-27 01:09 | 26.48285 | -97.57056 | 14574 ft | 359 kts | 1° |
| 2026-04-27 01:09 | 26.50790 | -97.56838 | 15147 ft | 363 kts | 1° |
| 2026-04-27 01:09 | 26.53323 | -97.56618 | 15720 ft | 366 kts | 1° |
| 2026-04-27 01:09 | 26.55874 | -97.56395 | 16292 ft | 370 kts | 1° |
| 2026-04-27 01:10 | 26.58449 | -97.56170 | 16864 ft | 373 kts | 0° |
| 2026-04-27 01:10 | 26.61053 | -97.55945 | 17435 ft | 377 kts | 0° |
| 2026-04-27 01:10 | 26.63645 | -97.55720 | 17997 ft | 380 kts | 0° |
| 2026-04-27 01:10 | 26.66296 | -97.55488 | 18496 ft | 384 kts | 0° |
| 2026-04-27 01:11 | 26.68972 | -97.55251 | 19000 ft | 387 kts | 0° |
| 2026-04-27 01:11 | 26.71667 | -97.55011 | 19512 ft | 390 kts | 0° |
| 2026-04-27 01:11 | 26.74386 | -97.54772 | 20025 ft | 393 kts | 360° |
| 2026-04-27 01:11 | 26.77119 | -97.54531 | 20533 ft | 396 kts | 360° |
| 2026-04-27 01:12 | 26.79877 | -97.54290 | 21044 ft | 399 kts | 359° |
| 2026-04-27 01:12 | 26.82659 | -97.54049 | 21552 ft | 402 kts | 359° |
| 2026-04-27 01:12 | 26.85461 | -97.53802 | 22069 ft | 405 kts | 359° |
| 2026-04-27 01:12 | 26.88290 | -97.53552 | 22565 ft | 409 kts | 359° |
| 2026-04-27 01:13 | 26.91134 | -97.53304 | 23065 ft | 412 kts | 359° |
| 2026-04-27 01:13 | 26.94002 | -97.53055 | 23525 ft | 415 kts | 359° |
| 2026-04-27 01:13 | 26.96890 | -97.52801 | 23932 ft | 417 kts | 359° |
| 2026-04-27 01:13 | 26.99758 | -97.52548 | 24337 ft | 420 kts | 359° |
| 2026-04-27 01:14 | 27.02673 | -97.52292 | 24755 ft | 422 kts | 359° |
| 2026-04-27 01:14 | 27.05604 | -97.52035 | 25158 ft | 423 kts | 358° |
| 2026-04-27 01:14 | 27.08553 | -97.51778 | 25552 ft | 425 kts | 358° |
| 2026-04-27 01:14 | 27.11509 | -97.51519 | 25951 ft | 427 kts | 358° |
| 2026-04-27 01:15 | 27.14478 | -97.51256 | 26336 ft | 429 kts | 358° |
| 2026-04-27 01:15 | 27.17460 | -97.50988 | 26722 ft | 431 kts | 358° |
| 2026-04-27 01:15 | 27.20459 | -97.50718 | 27107 ft | 433 kts | 358° |
| 2026-04-27 01:15 | 27.23468 | -97.50449 | 27482 ft | 435 kts | 358° |
| 2026-04-27 01:16 | 27.26487 | -97.50182 | 27852 ft | 436 kts | 358° |
| 2026-04-27 01:16 | 27.29520 | -97.49915 | 28209 ft | 438 kts | 358° |
| 2026-04-27 01:16 | 27.32566 | -97.49647 | 28561 ft | 440 kts | 358° |
| 2026-04-27 01:16 | 27.35625 | -97.49376 | 28906 ft | 442 kts | 358° |
| 2026-04-27 01:17 | 27.38699 | -97.49103 | 29250 ft | 444 kts | 357° |
| 2026-04-27 01:17 | 27.41782 | -97.48829 | 29582 ft | 445 kts | 357° |
| 2026-04-27 01:17 | 27.44879 | -97.48554 | 29897 ft | 447 kts | 357° |
| 2026-04-27 01:17 | 27.47988 | -97.48278 | 30166 ft | 449 kts | 357° |
| 2026-04-27 01:18 | 27.51107 | -97.48000 | 30424 ft | 451 kts | 357° |
| 2026-04-27 01:18 | 27.54241 | -97.47719 | 30665 ft | 452 kts | 357° |
| 2026-04-27 01:18 | 27.57390 | -97.47436 | 30908 ft | 454 kts | 357° |
| 2026-04-27 01:18 | 27.60545 | -97.47155 | 31136 ft | 456 kts | 357° |
| 2026-04-27 01:19 | 27.63713 | -97.46873 | 31357 ft | 457 kts | 357° |
| 2026-04-27 01:19 | 27.66881 | -97.46590 | 31673 ft | 456 kts | 356° |
| 2026-04-27 01:19 | 27.70043 | -97.46306 | 31996 ft | 456 kts | 356° |
| 2026-04-27 01:19 | 27.73202 | -97.46021 | 32321 ft | 455 kts | 356° |
| 2026-04-27 01:20 | 27.76354 | -97.45738 | 32633 ft | 454 kts | 356° |
| 2026-04-27 01:20 | 27.79504 | -97.45458 | 32941 ft | 454 kts | 356° |
| 2026-04-27 01:20 | 27.82649 | -97.45180 | 33247 ft | 453 kts | 356° |
| 2026-04-27 01:20 | 27.85794 | -97.44903 | 33558 ft | 453 kts | 355° |
| 2026-04-27 01:21 | 27.88934 | -97.44627 | 33874 ft | 452 kts | 355° |
| 2026-04-27 01:21 | 27.92071 | -97.44138 | 34143 ft | 463 kts | 7° |
| 2026-04-27 01:21 | 27.95108 | -97.42737 | 34399 ft | 481 kts | 23° |
| 2026-04-27 01:21 | 27.97906 | -97.40702 | 34639 ft | 485 kts | 26° |
| 2026-04-27 01:22 | 28.00720 | -97.38576 | 34796 ft | 485 kts | 26° |
| 2026-04-27 01:22 | 28.06273 | -97.34306 | 34834 ft | 486 kts | 26° |
| 2026-04-27 01:23 | 28.11919 | -97.29977 | 34837 ft | 492 kts | 26° |
| 2026-04-27 01:23 | 28.17609 | -97.25642 | 34838 ft | 493 kts | 26° |
| 2026-04-27 01:24 | 28.23309 | -97.21310 | 34840 ft | 493 kts | 26° |
| 2026-04-27 01:24 | 28.28999 | -97.16967 | 34840 ft | 493 kts | 26° |
| 2026-04-27 01:25 | 28.34686 | -97.12612 | 34847 ft | 493 kts | 26° |
| 2026-04-27 01:25 | 28.40377 | -97.08260 | 34856 ft | 493 kts | 26° |
| 2026-04-27 01:26 | 28.46060 | -97.03904 | 34861 ft | 493 kts | 26° |
| 2026-04-27 01:26 | 28.51737 | -96.99545 | 34864 ft | 492 kts | 26° |
| 2026-04-27 01:27 | 28.57375 | -96.95212 | 34865 ft | 492 kts | 26° |
| 2026-04-27 01:27 | 28.63044 | -96.90853 | 34861 ft | 490 kts | 26° |
| 2026-04-27 01:28 | 28.68618 | -96.86551 | 34844 ft | 484 kts | 26° |
| 2026-04-27 01:28 | 28.74193 | -96.82256 | 34843 ft | 484 kts | 26° |
| 2026-04-27 01:29 | 28.79766 | -96.77951 | 34843 ft | 484 kts | 26° |
| 2026-04-27 01:29 | 28.85338 | -96.73640 | 34846 ft | 483 kts | 26° |
| 2026-04-27 01:30 | 28.90861 | -96.69360 | 34849 ft | 483 kts | 26° |
| 2026-04-27 01:30 | 28.96413 | -96.65052 | 34854 ft | 483 kts | 26° |
| 2026-04-27 01:31 | 29.01971 | -96.60734 | 34857 ft | 482 kts | 26° |
| 2026-04-27 01:31 | 29.07522 | -96.56419 | 34855 ft | 482 kts | 26° |
| 2026-04-27 01:32 | 29.13068 | -96.52103 | 34856 ft | 482 kts | 26° |
| 2026-04-27 01:32 | 29.18610 | -96.47780 | 34852 ft | 482 kts | 26° |
| 2026-04-27 01:33 | 29.24153 | -96.43454 | 34852 ft | 482 kts | 26° |
| 2026-04-27 01:33 | 29.28754 | -96.39859 | 34853 ft | 482 kts | 26° |
| 2026-04-27 01:34 | 29.34287 | -96.35521 | 34848 ft | 482 kts | 26° |
| 2026-04-27 01:34 | 29.40717 | -96.30476 | 34830 ft | 481 kts | 26° |
| 2026-04-27 01:35 | 29.46244 | -96.26146 | 34837 ft | 481 kts | 26° |
| 2026-04-27 01:35 | 29.50876 | -96.22511 | 34859 ft | 481 kts | 26° |
| 2026-04-27 01:36 | 29.56400 | -96.18169 | 34851 ft | 481 kts | 26° |
| 2026-04-27 01:36 | 29.61920 | -96.13810 | 34849 ft | 481 kts | 26° |
| 2026-04-27 01:37 | 29.67431 | -96.09455 | 34830 ft | 481 kts | 26° |
| 2026-04-27 01:37 | 29.72918 | -96.05121 | 34856 ft | 481 kts | 26° |
| 2026-04-27 01:38 | 29.78428 | -96.00763 | 34872 ft | 481 kts | 26° |
| 2026-04-27 01:38 | 29.83940 | -95.96407 | 34883 ft | 480 kts | 26° |
| 2026-04-27 01:39 | 29.89450 | -95.92036 | 34874 ft | 480 kts | 26° |
| 2026-04-27 01:39 | 29.94948 | -95.87671 | 34861 ft | 480 kts | 26° |
| 2026-04-27 01:40 | 30.00443 | -95.83300 | 34828 ft | 480 kts | 26° |
| 2026-04-27 01:40 | 30.05938 | -95.78919 | 34823 ft | 480 kts | 26° |
| 2026-04-27 01:41 | 30.11425 | -95.74534 | 34836 ft | 480 kts | 26° |
| 2026-04-27 01:41 | 30.16919 | -95.70150 | 34841 ft | 479 kts | 26° |
| 2026-04-27 01:42 | 30.22407 | -95.65766 | 34837 ft | 479 kts | 26° |
| 2026-04-27 01:42 | 30.27894 | -95.61371 | 34847 ft | 480 kts | 26° |
| 2026-04-27 01:43 | 30.33374 | -95.56972 | 34866 ft | 480 kts | 26° |
| 2026-04-27 01:43 | 30.38861 | -95.52566 | 34873 ft | 480 kts | 26° |
| 2026-04-27 01:44 | 30.44309 | -95.48187 | 34874 ft | 480 kts | 26° |
| 2026-04-27 01:44 | 30.49798 | -95.43770 | 34873 ft | 480 kts | 26° |
| 2026-04-27 01:45 | 30.55264 | -95.39352 | 34538 ft | 476 kts | 26° |
| 2026-04-27 01:45 | 30.57954 | -95.37170 | 34199 ft | 467 kts | 26° |
| 2026-04-27 01:45 | 30.60598 | -95.35023 | 33784 ft | 461 kts | 26° |
| 2026-04-27 01:45 | 30.63215 | -95.32904 | 33264 ft | 457 kts | 26° |
| 2026-04-27 01:46 | 30.65812 | -95.30807 | 32739 ft | 453 kts | 26° |
| 2026-04-27 01:46 | 30.68396 | -95.28723 | 32214 ft | 450 kts | 26° |
| 2026-04-27 01:46 | 30.70955 | -95.26655 | 31697 ft | 447 kts | 26° |
| 2026-04-27 01:46 | 30.73502 | -95.24591 | 31204 ft | 445 kts | 26° |
| 2026-04-27 01:47 | 30.76027 | -95.22538 | 30720 ft | 442 kts | 27° |
| 2026-04-27 01:47 | 30.78539 | -95.20495 | 30238 ft | 440 kts | 27° |
| 2026-04-27 01:47 | 30.81041 | -95.18460 | 29744 ft | 437 kts | 27° |
| 2026-04-27 01:47 | 30.83524 | -95.16440 | 29232 ft | 434 kts | 27° |
| 2026-04-27 01:48 | 30.85986 | -95.14435 | 28758 ft | 430 kts | 27° |
| 2026-04-27 01:48 | 30.88428 | -95.12447 | 28305 ft | 426 kts | 27° |
| 2026-04-27 01:48 | 30.90844 | -95.10484 | 27863 ft | 422 kts | 27° |
| 2026-04-27 01:48 | 30.93236 | -95.08540 | 27431 ft | 418 kts | 27° |
| 2026-04-27 01:49 | 30.95610 | -95.06604 | 27010 ft | 414 kts | 27° |
| 2026-04-27 01:49 | 30.97956 | -95.04690 | 26602 ft | 410 kts | 27° |
| 2026-04-27 01:49 | 31.00285 | -95.02788 | 26195 ft | 407 kts | 27° |
| 2026-04-27 01:49 | 31.02587 | -95.00909 | 25791 ft | 403 kts | 27° |
| 2026-04-27 01:50 | 31.04874 | -94.99043 | 25389 ft | 399 kts | 27° |
| 2026-04-27 01:50 | 31.07135 | -94.97193 | 24987 ft | 396 kts | 27° |
| 2026-04-27 01:50 | 31.09377 | -94.95357 | 24591 ft | 392 kts | 28° |
| 2026-04-27 01:50 | 31.11600 | -94.93536 | 24190 ft | 388 kts | 28° |
| 2026-04-27 01:51 | 31.13802 | -94.91732 | 23808 ft | 385 kts | 28° |
| 2026-04-27 01:51 | 31.15983 | -94.89946 | 23422 ft | 381 kts | 28° |
| 2026-04-27 01:51 | 31.18146 | -94.88172 | 22965 ft | 378 kts | 28° |
| 2026-04-27 01:51 | 31.20291 | -94.86412 | 22508 ft | 375 kts | 28° |
| 2026-04-27 01:52 | 31.22417 | -94.84667 | 22058 ft | 373 kts | 28° |
| 2026-04-27 01:52 | 31.24505 | -94.82954 | 21624 ft | 370 kts | 28° |
| 2026-04-27 01:52 | 31.26610 | -94.81228 | 21196 ft | 368 kts | 29° |
| 2026-04-27 01:52 | 31.28694 | -94.79516 | 20777 ft | 366 kts | 29° |
| 2026-04-27 01:53 | 31.30769 | -94.77808 | 20366 ft | 363 kts | 29° |
| 2026-04-27 01:53 | 31.32830 | -94.76108 | 19965 ft | 361 kts | 30° |
| 2026-04-27 01:53 | 31.34879 | -94.74418 | 19573 ft | 359 kts | 30° |
| 2026-04-27 01:53 | 31.36913 | -94.72740 | 19190 ft | 357 kts | 30° |
| 2026-04-27 01:54 | 31.38936 | -94.71071 | 18809 ft | 355 kts | 30° |
| 2026-04-27 01:54 | 31.40948 | -94.69414 | 18444 ft | 353 kts | 30° |
| 2026-04-27 01:54 | 31.42947 | -94.67767 | 18071 ft | 351 kts | 30° |
| 2026-04-27 01:54 | 31.44938 | -94.66125 | 17649 ft | 349 kts | 30° |
| 2026-04-27 01:55 | 31.46921 | -94.64487 | 17239 ft | 347 kts | 31° |
| 2026-04-27 01:55 | 31.48890 | -94.62860 | 16832 ft | 346 kts | 31° |
| 2026-04-27 01:55 | 31.50854 | -94.61233 | 16439 ft | 344 kts | 31° |
| 2026-04-27 01:55 | 31.52801 | -94.59618 | 16058 ft | 343 kts | 31° |
| 2026-04-27 01:56 | 31.56655 | -94.56425 | 15318 ft | 340 kts | 31° |
| 2026-04-27 01:56 | 31.58583 | -94.54826 | 14953 ft | 339 kts | 31° |
| 2026-04-27 01:56 | 31.60503 | -94.53233 | 14593 ft | 337 kts | 32° |
| 2026-04-27 01:57 | 31.62421 | -94.51645 | 14233 ft | 336 kts | 32° |
| 2026-04-27 01:57 | 31.64330 | -94.50066 | 13880 ft | 335 kts | 32° |
| 2026-04-27 01:57 | 31.66227 | -94.48491 | 13518 ft | 334 kts | 32° |
| 2026-04-27 01:57 | 31.68120 | -94.46915 | 13136 ft | 332 kts | 32° |
| 2026-04-27 01:58 | 31.69999 | -94.45350 | 12757 ft | 331 kts | 32° |
| 2026-04-27 01:58 | 31.71875 | -94.43786 | 12376 ft | 329 kts | 32° |
| 2026-04-27 01:58 | 31.73743 | -94.42232 | 11995 ft | 328 kts | 32° |
| 2026-04-27 01:58 | 31.75604 | -94.40683 | 11615 ft | 327 kts | 32° |
| 2026-04-27 01:59 | 31.77455 | -94.39142 | 11243 ft | 325 kts | 32° |
| 2026-04-27 01:59 | 31.79298 | -94.37607 | 10874 ft | 324 kts | 33° |
| 2026-04-27 01:59 | 31.81135 | -94.36073 | 10498 ft | 323 kts | 33° |
| 2026-04-27 01:59 | 31.82944 | -94.34563 | 10129 ft | 322 kts | 32° |
| 2026-04-27 02:00 | 31.84905 | -94.33437 | 9918 ft | 308 kts | 11° |
| 2026-04-27 02:00 | 31.86991 | -94.32924 | 9572 ft | 305 kts | 6° |
| 2026-04-27 02:00 | 31.89075 | -94.32504 | 9174 ft | 303 kts | 6° |
| 2026-04-27 02:00 | 31.91156 | -94.32104 | 8772 ft | 303 kts | 6° |
| 2026-04-27 02:01 | 31.93233 | -94.31718 | 8377 ft | 302 kts | 6° |
| 2026-04-27 02:01 | 31.95303 | -94.31345 | 8207 ft | 302 kts | 6° |
| 2026-04-27 02:01 | 31.97387 | -94.30975 | 8089 ft | 303 kts | 6° |
| 2026-04-27 02:01 | 31.99478 | -94.30609 | 7900 ft | 303 kts | 6° |
| 2026-04-27 02:02 | 32.01561 | -94.30248 | 7710 ft | 303 kts | 6° |
| 2026-04-27 02:02 | 32.03642 | -94.29893 | 7522 ft | 303 kts | 6° |
| 2026-04-27 02:02 | 32.05726 | -94.29540 | 7324 ft | 302 kts | 6° |
| 2026-04-27 02:02 | 32.07810 | -94.29194 | 7159 ft | 302 kts | 6° |
| 2026-04-27 02:03 | 32.09893 | -94.28848 | 6998 ft | 302 kts | 6° |
| 2026-04-27 02:03 | 32.11976 | -94.28504 | 6829 ft | 302 kts | 6° |
| 2026-04-27 02:03 | 32.14057 | -94.28166 | 6673 ft | 302 kts | 6° |
| 2026-04-27 02:03 | 32.16137 | -94.27835 | 6502 ft | 301 kts | 6° |
| 2026-04-27 02:04 | 32.18185 | -94.27512 | 6348 ft | 301 kts | 6° |
| 2026-04-27 02:04 | 32.20287 | -94.27187 | 6181 ft | 301 kts | 6° |
| 2026-04-27 02:04 | 32.22338 | -94.26876 | 6010 ft | 301 kts | 6° |
| 2026-04-27 02:04 | 32.24442 | -94.26558 | 5838 ft | 300 kts | 6° |
| 2026-04-27 02:05 | 32.26464 | -94.26259 | 5672 ft | 299 kts | 6° |
| 2026-04-27 02:05 | 32.28505 | -94.25960 | 5504 ft | 299 kts | 6° |
| 2026-04-27 02:05 | 32.30569 | -94.25662 | 5336 ft | 298 kts | 6° |
| 2026-04-27 02:05 | 32.32629 | -94.25371 | 5160 ft | 298 kts | 6° |
| 2026-04-27 02:06 | 32.34689 | -94.25082 | 5036 ft | 297 kts | 6° |
| 2026-04-27 02:06 | 32.36744 | -94.24794 | 4994 ft | 297 kts | 6° |
| 2026-04-27 02:06 | 32.38759 | -94.24512 | 4999 ft | 288 kts | 6° |
| 2026-04-27 02:06 | 32.40746 | -94.24234 | 5003 ft | 287 kts | 6° |
| 2026-04-27 02:07 | 32.42727 | -94.23953 | 5001 ft | 286 kts | 6° |
| 2026-04-27 02:07 | 32.44671 | -94.23676 | 5002 ft | 277 kts | 6° |
| 2026-04-27 02:07 | 32.46581 | -94.23402 | 5008 ft | 276 kts | 6° |
| 2026-04-27 02:07 | 32.48484 | -94.23129 | 5009 ft | 275 kts | 6° |
| 2026-04-27 02:08 | 32.50386 | -94.22857 | 5007 ft | 275 kts | 6° |
| 2026-04-27 02:08 | 32.52279 | -94.22517 | 5004 ft | 276 kts | 17° |
| 2026-04-27 02:08 | 32.53922 | -94.21420 | 5007 ft | 272 kts | 45° |
| 2026-04-27 02:08 | 32.55240 | -94.19827 | 4984 ft | 266 kts | 50° |
| 2026-04-27 02:09 | 32.56464 | -94.18235 | 4785 ft | 257 kts | 51° |
| 2026-04-27 02:09 | 32.57660 | -94.16674 | 4500 ft | 254 kts | 51° |
| 2026-04-27 02:09 | 32.58844 | -94.15134 | 4190 ft | 252 kts | 51° |
| 2026-04-27 02:09 | 32.60030 | -94.13607 | 3860 ft | 251 kts | 51° |
| 2026-04-27 02:10 | 32.61123 | -94.12017 | 3554 ft | 245 kts | 68° |
| 2026-04-27 02:10 | 32.61503 | -94.10136 | 3266 ft | 231 kts | 95° |
| 2026-04-27 02:10 | 32.61443 | -94.08266 | 3059 ft | 224 kts | 100° |
| 2026-04-27 02:10 | 32.61332 | -94.06433 | 2779 ft | 222 kts | 101° |
| 2026-04-27 02:11 | 32.61219 | -94.04606 | 2508 ft | 221 kts | 101° |
| 2026-04-27 02:11 | 32.61110 | -94.02802 | 2251 ft | 218 kts | 101° |
| 2026-04-27 02:11 | 32.60999 | -94.01032 | 2119 ft | 212 kts | 101° |
| 2026-04-27 02:11 | 32.60884 | -93.99302 | 2033 ft | 209 kts | 102° |
| 2026-04-27 02:12 | 32.60520 | -93.97699 | 2004 ft | 195 kts | 123° |
| 2026-04-27 02:12 | 32.59758 | -93.96463 | 2038 ft | 179 kts | 141° |
| 2026-04-27 02:12 | 32.58801 | -93.95567 | 2021 ft | 173 kts | 147° |
| 2026-04-27 02:12 | 32.57845 | -93.94707 | 2011 ft | 172 kts | 147° |
| 2026-04-27 02:13 | 32.56907 | -93.93861 | 2012 ft | 171 kts | 147° |
| 2026-04-27 02:13 | 32.55968 | -93.93015 | 2020 ft | 169 kts | 147° |
| 2026-04-27 02:13 | 32.55036 | -93.92175 | 2016 ft | 166 kts | 148° |
| 2026-04-27 02:13 | 32.54156 | -93.91381 | 2018 ft | 155 kts | 148° |
| 2026-04-27 02:14 | 32.53334 | -93.90639 | 2007 ft | 144 kts | 148° |
| 2026-04-27 02:14 | 32.52542 | -93.89927 | 1956 ft | 140 kts | 148° |
| 2026-04-27 02:14 | 32.51803 | -93.89260 | 1807 ft | 128 kts | 148° |
| 2026-04-27 02:14 | 32.51102 | -93.88630 | 1658 ft | 124 kts | 148° |
| 2026-04-27 02:15 | 32.50420 | -93.88017 | 1498 ft | 122 kts | 147° |
| 2026-04-27 02:15 | 32.49745 | -93.87411 | 1349 ft | 122 kts | 148° |
| 2026-04-27 02:15 | 32.49067 | -93.86801 | 1193 ft | 123 kts | 147° |
| 2026-04-27 02:15 | 32.48392 | -93.86192 | 1045 ft | 125 kts | 144° |
| 2026-04-27 02:16 | 32.47705 | -93.85542 | 914 ft | 128 kts | 146° |
| 2026-04-27 02:16 | 32.46969 | -93.84928 | 795 ft | 128 kts | 144° |
| 2026-04-27 02:16 | 32.46269 | -93.84274 | 542 ft | 127 kts | 145° |
| 2026-04-27 02:16 | 32.45567 | -93.83651 | 345 ft | 126 kts | 144° |
| 2026-04-27 02:17 | 32.44888 | -93.83041 | 251 ft | 112 kts | 144° |
| 2026-04-27 02:17 | 32.44384 | -93.82588 | 254 ft | 70 kts | 142° |
| 2026-04-27 02:17 | 32.44153 | -93.82384 | 255 ft | 9 kts | 143° |
| 2026-04-27 02:17 | 32.44176 | -93.82311 | 255 ft | 17 kts | 53° |
| 2026-04-27 02:18 | 32.44259 | -93.82275 | 252 ft | 14 kts | 329° |
| 2026-04-27 02:18 | 32.44336 | -93.82344 | 252 ft | 13 kts | 323° |
| 2026-04-27 02:18 | 32.44402 | -93.82402 | 254 ft | 11 kts | 323° |
| 2026-04-27 02:18 | 32.44462 | -93.82447 | 254 ft | 11 kts | 333° |
| 2026-04-27 02:19 | 32.44558 | -93.82483 | 253 ft | 17 kts | 346° |
| 2026-04-27 02:19 | 32.44669 | -93.82511 | 252 ft | 16 kts | 349° |
| 2026-04-27 02:19 | 32.44765 | -93.82531 | 254 ft | 13 kts | 349° |
| 2026-04-27 02:19 | 32.44856 | -93.82552 | 252 ft | 14 kts | 349° |
| 2026-04-27 02:20 | 32.44954 | -93.82574 | 249 ft | 14 kts | 349° |
| 2026-04-27 02:20 | 32.45014 | -93.82627 | 250 ft | 10 kts | 271° |
| 2026-04-27 02:20 | 32.45012 | -93.82701 | 252 ft | 9 kts | 275° |
| 2026-04-27 02:20 | 32.45042 | -93.82735 | 253 ft | 11 kts | 349° |
| 2026-04-27 02:21 | 32.45135 | -93.82735 | 254 ft | 12 kts | 0° |
| 2026-04-27 02:21 | 32.45194 | -93.82761 | 257 ft | 7 kts | 316° |
| 2026-04-27 02:21 | 32.45194 | -93.82798 | 257 ft | 4 kts | 237° |
| 2026-04-27 02:21 | 32.45167 | -93.82805 | 256 ft | 5 kts | 179° |
| 2026-04-27 02:22 | 32.45165 | -93.82805 | 256 ft | 0 kts | 179° |